createdAt,value
2016-04-21T00:00:06.161Z,9
2016-04-21T00:00:16.177Z,9
2016-04-21T00:00:26.192Z,9
2016-04-21T00:00:36.177Z,9
2016-04-21T00:00:46.192Z,8.9
2016-04-21T00:00:56.177Z,8.9
2016-04-21T00:01:06.180Z,8.9
2016-04-21T00:01:16.180Z,8.9
2016-04-21T00:01:26.211Z,8.9
2016-04-21T00:01:36.195Z,8.9
2016-04-21T00:01:46.180Z,9
2016-04-21T00:01:56.180Z,9
2016-04-21T00:02:06.261Z,9
2016-04-21T00:02:16.058Z,8.9
2016-04-21T00:02:26.198Z,8.9
2016-04-21T00:02:36.198Z,9
2016-04-21T00:02:46.214Z,8.9
2016-04-21T00:02:56.198Z,9
2016-04-21T00:03:06.201Z,8.9
2016-04-21T00:03:16.201Z,8.9
2016-04-21T00:03:26.201Z,8.9
2016-04-21T00:03:36.201Z,8.9
2016-04-21T00:03:46.201Z,9
2016-04-21T00:03:56.201Z,8.8
2016-04-21T00:04:06.219Z,8.9
2016-04-21T00:04:16.235Z,8.9
2016-04-21T00:04:26.219Z,8.9
2016-04-21T00:04:36.219Z,8.9
2016-04-21T00:04:46.219Z,8.9
2016-04-21T00:04:56.219Z,8.9
2016-04-21T00:05:06.222Z,8.9
2016-04-21T00:05:16.222Z,8.9
2016-04-21T00:05:26.222Z,8.9
2016-04-21T00:05:36.222Z,8.9
2016-04-21T00:05:46.222Z,8.8
2016-04-21T00:05:56.238Z,8.9
2016-04-21T00:06:06.240Z,8.8
2016-04-21T00:06:16.240Z,8.9
2016-04-21T00:06:26.240Z,8.8
2016-04-21T00:06:36.240Z,8.8
2016-04-21T00:06:46.240Z,8.9
2016-04-21T00:06:56.240Z,8.8
2016-04-21T00:07:06.243Z,8.7
2016-04-21T00:07:16.243Z,8.8
2016-04-21T00:07:26.258Z,8.8
2016-04-21T00:07:36.258Z,8.8
2016-04-21T00:07:46.243Z,8.8
2016-04-21T00:07:56.258Z,8.8
2016-04-21T00:08:06.261Z,8.8
2016-04-21T00:08:16.261Z,8.8
2016-04-21T00:08:26.261Z,8.8
2016-04-21T00:08:36.261Z,8.8
2016-04-21T00:08:46.261Z,8.8
2016-04-21T00:08:57.655Z,8.8
2016-04-21T00:09:06.264Z,8.8
2016-04-21T00:09:16.264Z,8.8
2016-04-21T00:09:26.264Z,8.8
2016-04-21T00:09:36.264Z,8.7
2016-04-21T00:09:46.264Z,8.8
2016-04-21T00:09:56.280Z,8.7
2016-04-21T00:10:06.283Z,8.8
2016-04-21T00:10:16.283Z,8.7
2016-04-21T00:10:26.283Z,8.7
2016-04-21T00:10:36.283Z,8.7
2016-04-21T00:10:46.283Z,8.8
2016-04-21T00:10:56.283Z,8.7
2016-04-21T00:11:06.285Z,8.7
2016-04-21T00:11:16.285Z,8.8
2016-04-21T00:11:26.300Z,8.8
2016-04-21T00:11:36.300Z,8.8
2016-04-21T00:11:46.300Z,8.7
2016-04-21T00:11:56.300Z,8.7
2016-04-21T00:12:06.303Z,8.7
2016-04-21T00:12:16.303Z,8.7
2016-04-21T00:12:26.303Z,8.7
2016-04-21T00:12:36.303Z,8.8
2016-04-21T00:12:46.303Z,8.7
2016-04-21T00:12:56.303Z,8.7
2016-04-21T00:13:06.322Z,8.7
2016-04-21T00:13:16.306Z,8.8
2016-04-21T00:13:26.322Z,8.7
2016-04-21T00:13:36.306Z,8.7
2016-04-21T00:13:46.322Z,8.7
2016-04-21T00:13:56.322Z,8.8
2016-04-21T00:14:06.324Z,8.7
2016-04-21T00:14:16.324Z,8.7
2016-04-21T00:14:26.324Z,8.7
2016-04-21T00:14:36.324Z,8.7
2016-04-21T00:14:46.324Z,8.7
2016-04-21T00:14:56.324Z,8.7
2016-04-21T00:15:06.327Z,8.7
2016-04-21T00:15:16.327Z,8.7
2016-04-21T00:15:26.343Z,8.7
2016-04-21T00:15:36.343Z,8.7
2016-04-21T00:15:46.343Z,8.6
2016-04-21T00:15:56.343Z,8.7
2016-04-21T00:16:06.345Z,8.6
2016-04-21T00:16:16.345Z,8.6
2016-04-21T00:16:26.345Z,8.7
2016-04-21T00:16:36.360Z,8.7
2016-04-21T00:16:46.360Z,8.7
2016-04-21T00:16:56.345Z,8.7
2016-04-21T00:17:06.363Z,8.6
2016-04-21T00:17:16.363Z,8.7
2016-04-21T00:17:26.363Z,8.7
2016-04-21T00:17:36.363Z,8.6
2016-04-21T00:17:46.363Z,8.7
2016-04-21T00:17:56.363Z,8.6
2016-04-21T00:18:06.366Z,8.7
2016-04-21T00:18:16.398Z,8.7
2016-04-21T00:18:26.366Z,8.6
2016-04-21T00:18:36.366Z,8.6
2016-04-21T00:18:46.226Z,8.6
2016-04-21T00:18:56.382Z,8.7
2016-04-21T00:19:06.385Z,8.6
2016-04-21T00:19:16.385Z,8.7
2016-04-21T00:19:26.385Z,8.6
2016-04-21T00:19:36.385Z,8.6
2016-04-21T00:19:46.385Z,8.6
2016-04-21T00:19:56.322Z,8.6
2016-04-21T00:20:06.388Z,8.7
2016-04-21T00:20:16.388Z,8.6
2016-04-21T00:20:26.388Z,8.6
2016-04-21T00:20:36.404Z,8.6
2016-04-21T00:20:46.388Z,8.7
2016-04-21T00:20:56.404Z,8.7
2016-04-21T00:21:06.390Z,8.7
2016-04-21T00:21:16.406Z,8.6
2016-04-21T00:21:26.406Z,8.7
2016-04-21T00:21:36.406Z,8.6
2016-04-21T00:21:46.406Z,8.7
2016-04-21T00:21:56.406Z,8.6
2016-04-21T00:22:06.409Z,8.6
2016-04-21T00:22:16.409Z,8.7
2016-04-21T00:22:26.409Z,8.6
2016-04-21T00:22:36.409Z,8.6
2016-04-21T00:22:46.409Z,8.6
2016-04-21T00:22:56.268Z,8.6
2016-04-21T00:23:06.489Z,8.6
2016-04-21T00:23:16.426Z,8.6
2016-04-21T00:23:26.426Z,8.5
2016-04-21T00:23:36.426Z,8.6
2016-04-21T00:23:46.426Z,8.5
2016-04-21T00:23:56.426Z,8.5
2016-04-21T00:24:06.429Z,8.6
2016-04-21T00:24:16.429Z,8.6
2016-04-21T00:24:26.429Z,8.6
2016-04-21T00:24:36.445Z,8.6
2016-04-21T00:24:46.429Z,8.5
2016-04-21T00:24:56.445Z,8.5
2016-04-21T00:25:06.447Z,8.6
2016-04-21T00:25:16.447Z,8.6
2016-04-21T00:25:26.447Z,8.5
2016-04-21T00:25:36.447Z,8.6
2016-04-21T00:25:46.447Z,8.5
2016-04-21T00:25:56.447Z,8.5
2016-04-21T00:26:06.450Z,8.5
2016-04-21T00:26:16.450Z,8.6
2016-04-21T00:26:26.450Z,8.5
2016-04-21T00:26:36.450Z,8.6
2016-04-21T00:26:46.465Z,8.5
2016-04-21T00:26:56.465Z,8.5
2016-04-21T00:27:06.468Z,8.6
2016-04-21T00:27:16.468Z,8.5
2016-04-21T00:27:26.468Z,8.5
2016-04-21T00:27:36.468Z,8.5
2016-04-21T00:27:46.468Z,8.5
2016-04-21T00:27:56.484Z,8.5
2016-04-21T00:28:06.487Z,8.5
2016-04-21T00:28:16.471Z,8.5
2016-04-21T00:28:26.471Z,8.5
2016-04-21T00:28:36.471Z,8.6
2016-04-21T00:28:46.487Z,8.5
2016-04-21T00:28:56.487Z,8.5
2016-04-21T00:29:06.490Z,8.5
2016-04-21T00:29:16.490Z,8.5
2016-04-21T00:29:26.490Z,8.5
2016-04-21T00:29:36.490Z,8.6
2016-04-21T00:29:46.490Z,8.5
2016-04-21T00:29:56.490Z,8.6
2016-04-21T00:30:06.492Z,8.6
2016-04-21T00:30:16.492Z,8.6
2016-04-21T00:30:26.492Z,8.4
2016-04-21T00:30:36.508Z,8.5
2016-04-21T00:30:46.492Z,8.5
2016-04-21T00:30:56.508Z,8.5
2016-04-21T00:31:06.511Z,8.4
2016-04-21T00:31:16.511Z,8.5
2016-04-21T00:31:26.511Z,8.5
2016-04-21T00:31:36.526Z,8.5
2016-04-21T00:31:46.526Z,8.5
2016-04-21T00:31:56.511Z,8.5
2016-04-21T00:32:06.528Z,8.5
2016-04-21T00:32:16.513Z,8.5
2016-04-21T00:32:26.528Z,8.4
2016-04-21T00:32:36.513Z,8.5
2016-04-21T00:32:46.528Z,8.5
2016-04-21T00:32:56.528Z,8.5
2016-04-21T00:33:06.531Z,8.5
2016-04-21T00:33:16.531Z,8.5
2016-04-21T00:33:26.563Z,8.5
2016-04-21T00:33:36.531Z,8.5
2016-04-21T00:33:46.547Z,8.5
2016-04-21T00:33:56.531Z,8.4
2016-04-21T00:34:06.550Z,8.5
2016-04-21T00:34:16.534Z,8.5
2016-04-21T00:34:26.550Z,8.5
2016-04-21T00:34:36.550Z,8.4
2016-04-21T00:34:46.550Z,8.4
2016-04-21T00:34:56.550Z,8.4
2016-04-21T00:35:06.552Z,8.4
2016-04-21T00:35:16.552Z,8.4
2016-04-21T00:35:26.552Z,8.4
2016-04-21T00:35:36.552Z,8.5
2016-04-21T00:35:46.552Z,8.4
2016-04-21T00:35:56.552Z,8.4
2016-04-21T00:36:06.665Z,8.3
2016-04-21T00:36:16.556Z,8.4
2016-04-21T00:36:26.572Z,8.5
2016-04-21T00:36:36.572Z,8.4
2016-04-21T00:36:46.572Z,8.4
2016-04-21T00:36:56.572Z,8.4
2016-04-21T00:37:06.574Z,8.4
2016-04-21T00:37:16.574Z,8.4
2016-04-21T00:37:26.574Z,8.5
2016-04-21T00:37:36.574Z,8.3
2016-04-21T00:37:46.574Z,8.4
2016-04-21T00:37:56.589Z,8.4
2016-04-21T00:38:06.576Z,8.4
2016-04-21T00:38:16.576Z,8.3
2016-04-21T00:38:26.591Z,8.4
2016-04-21T00:38:36.591Z,8.4
2016-04-21T00:38:46.591Z,8.3
2016-04-21T00:38:56.591Z,8.4
2016-04-21T00:39:06.595Z,8.3
2016-04-21T00:39:16.611Z,8.4
2016-04-21T00:39:26.611Z,8.4
2016-04-21T00:39:36.595Z,8.4
2016-04-21T00:39:46.595Z,8.3
2016-04-21T00:39:56.611Z,8.4
2016-04-21T00:40:06.613Z,8.3
2016-04-21T00:40:16.597Z,8.3
2016-04-21T00:40:26.613Z,8.4
2016-04-21T00:40:36.613Z,8.4
2016-04-21T00:40:46.613Z,8.4
2016-04-21T00:40:56.613Z,8.4
2016-04-21T00:41:06.615Z,8.4
2016-04-21T00:41:16.615Z,8.3
2016-04-21T00:41:26.615Z,8.4
2016-04-21T00:41:36.615Z,8.3
2016-04-21T00:41:46.615Z,8.4
2016-04-21T00:41:56.615Z,8.4
2016-04-21T00:42:06.618Z,8.4
2016-04-21T00:42:16.618Z,8.3
2016-04-21T00:42:26.633Z,8.3
2016-04-21T00:42:36.633Z,8.3
2016-04-21T00:42:46.633Z,8.3
2016-04-21T00:42:56.477Z,8.3
2016-04-21T00:43:06.652Z,8.4
2016-04-21T00:43:16.636Z,8.4
2016-04-21T00:43:26.636Z,8.4
2016-04-21T00:43:36.636Z,8.3
2016-04-21T00:43:46.636Z,8.3
2016-04-21T00:43:56.652Z,8.3
2016-04-21T00:44:06.655Z,8.3
2016-04-21T00:44:16.655Z,8.4
2016-04-21T00:44:26.655Z,8.3
2016-04-21T00:44:36.655Z,8.3
2016-04-21T00:44:46.655Z,8.3
2016-04-21T00:44:56.655Z,8.4
2016-04-21T00:45:06.658Z,8.4
2016-04-21T00:45:16.658Z,8.4
2016-04-21T00:45:26.658Z,8.3
2016-04-21T00:45:36.658Z,8.3
2016-04-21T00:45:46.658Z,8.3
2016-04-21T00:45:56.658Z,8.3
2016-04-21T00:46:06.676Z,8.3
2016-04-21T00:46:16.676Z,8.3
2016-04-21T00:46:26.676Z,8.4
2016-04-21T00:46:36.676Z,8.3
2016-04-21T00:46:46.691Z,8.2
2016-04-21T00:46:56.676Z,8.3
2016-04-21T00:47:06.679Z,8.3
2016-04-21T00:47:16.679Z,8.3
2016-04-21T00:47:26.679Z,8.3
2016-04-21T00:47:36.679Z,8.3
2016-04-21T00:47:46.679Z,8.3
2016-04-21T00:47:56.694Z,8.3
2016-04-21T00:48:06.696Z,8.3
2016-04-21T00:48:16.696Z,8.3
2016-04-21T00:48:26.696Z,8.3
2016-04-21T00:48:36.696Z,8.3
2016-04-21T00:48:46.696Z,8.3
2016-04-21T00:48:56.696Z,8.2
2016-04-21T00:49:06.699Z,8.3
2016-04-21T00:49:16.699Z,8.3
2016-04-21T00:49:26.699Z,8.3
2016-04-21T00:49:36.699Z,8.2
2016-04-21T00:49:46.699Z,8.3
2016-04-21T00:49:56.715Z,8.2
2016-04-21T00:50:06.718Z,8.2
2016-04-21T00:50:16.718Z,8.3
2016-04-21T00:50:26.718Z,8.4
2016-04-21T00:50:36.718Z,8.2
2016-04-21T00:50:46.718Z,8.2
2016-04-21T00:50:56.718Z,8.2
2016-04-21T00:51:06.720Z,8.2
2016-04-21T00:51:16.720Z,8.2
2016-04-21T00:51:26.720Z,8.2
2016-04-21T00:51:36.736Z,8.3
2016-04-21T00:51:46.720Z,8.2
2016-04-21T00:51:56.736Z,8.2
2016-04-21T00:52:06.740Z,8.2
2016-04-21T00:52:16.740Z,8.2
2016-04-21T00:52:26.755Z,8.3
2016-04-21T00:52:36.740Z,8.2
2016-04-21T00:52:46.740Z,8.2
2016-04-21T00:52:56.740Z,8.2
2016-04-21T00:53:06.742Z,8.2
2016-04-21T00:53:16.757Z,8.3
2016-04-21T00:53:26.757Z,8.3
2016-04-21T00:53:36.742Z,8.3
2016-04-21T00:53:46.742Z,8.3
2016-04-21T00:53:56.601Z,8.3
2016-04-21T00:54:06.760Z,8.3
2016-04-21T00:54:16.760Z,8.2
2016-04-21T00:54:26.760Z,8.2
2016-04-21T00:54:36.760Z,8.3
2016-04-21T00:54:46.760Z,8.2
2016-04-21T00:54:56.776Z,8.2
2016-04-21T00:55:06.763Z,8.3
2016-04-21T00:55:16.763Z,8.3
2016-04-21T00:55:26.763Z,8.2
2016-04-21T00:55:36.763Z,8.2
2016-04-21T00:55:46.763Z,8.2
2016-04-21T00:55:56.779Z,8.2
2016-04-21T00:56:06.781Z,8.2
2016-04-21T00:56:16.781Z,8.1
2016-04-21T00:56:26.781Z,8.3
2016-04-21T00:56:36.781Z,8.2
2016-04-21T00:56:46.781Z,8.3
2016-04-21T00:56:56.781Z,8.3
2016-04-21T00:57:06.784Z,8.2
2016-04-21T00:57:16.784Z,8.3
2016-04-21T00:57:26.784Z,8.2
2016-04-21T00:57:36.784Z,8.3
2016-04-21T00:57:46.799Z,8.1
2016-04-21T00:57:56.799Z,8.3
2016-04-21T00:58:06.801Z,8.2
2016-04-21T00:58:16.801Z,8.2
2016-04-21T00:58:26.801Z,8.1
2016-04-21T00:58:36.801Z,8.2
2016-04-21T00:58:46.801Z,8.2
2016-04-21T00:58:56.801Z,8.1
2016-04-21T00:59:06.804Z,8.2
2016-04-21T00:59:16.804Z,8.2
2016-04-21T00:59:26.820Z,8.2
2016-04-21T00:59:36.804Z,8.2
2016-04-21T00:59:46.836Z,8.2
2016-04-21T00:59:56.820Z,8.2
2016-04-21T01:00:06.823Z,8.2
2016-04-21T01:00:16.823Z,8.1
2016-04-21T01:00:26.823Z,8.1
2016-04-21T01:00:36.823Z,8.1
2016-04-21T01:00:46.823Z,8.1
2016-04-21T01:00:56.823Z,8.1
2016-04-21T01:01:06.826Z,8.1
2016-04-21T01:01:16.826Z,8.2
2016-04-21T01:01:26.826Z,8.1
2016-04-21T01:01:36.842Z,8.2
2016-04-21T01:01:46.842Z,8.1
2016-04-21T01:01:56.842Z,8.2
2016-04-21T01:02:06.844Z,8.2
2016-04-21T01:02:16.687Z,8.1
2016-04-21T01:02:26.844Z,8.1
2016-04-21T01:02:36.844Z,8.1
2016-04-21T01:02:46.859Z,8.1
2016-04-21T01:02:56.844Z,8.2
2016-04-21T01:03:06.847Z,8.1
2016-04-21T01:03:16.847Z,8.2
2016-04-21T01:03:26.847Z,8.1
2016-04-21T01:03:36.862Z,8.1
2016-04-21T01:03:46.862Z,8.1
2016-04-21T01:03:56.862Z,8.1
2016-04-21T01:04:06.880Z,8.1
2016-04-21T01:04:16.880Z,8.2
2016-04-21T01:04:26.880Z,8.1
2016-04-21T01:04:36.880Z,8.1
2016-04-21T01:04:46.896Z,8.1
2016-04-21T01:04:56.880Z,8.2
2016-04-21T01:05:06.928Z,8.1
2016-04-21T01:05:16.944Z,8.1
2016-04-21T01:05:26.928Z,8.1
2016-04-21T01:05:36.928Z,8
2016-04-21T01:05:46.944Z,8.1
2016-04-21T01:05:56.944Z,8.1
2016-04-21T01:06:06.993Z,8.1
2016-04-21T01:06:16.993Z,8.1
2016-04-21T01:06:26.993Z,8.1
2016-04-21T01:06:36.993Z,8.1
2016-04-21T01:06:46.993Z,8.1
2016-04-21T01:06:57.009Z,8.1
2016-04-21T01:07:07.040Z,8.1
2016-04-21T01:07:17.040Z,8
2016-04-21T01:07:27.040Z,8.1
2016-04-21T01:07:37.056Z,8
2016-04-21T01:07:47.056Z,8.1
2016-04-21T01:07:56.915Z,8.1
2016-04-21T01:08:07.104Z,8.1
2016-04-21T01:08:17.104Z,8.1
2016-04-21T01:08:27.104Z,8.1
2016-04-21T01:08:37.104Z,8
2016-04-21T01:08:47.104Z,8.1
2016-04-21T01:08:57.104Z,8.1
2016-04-21T01:09:07.157Z,8.1
2016-04-21T01:09:17.157Z,8
2016-04-21T01:09:27.157Z,8.1
2016-04-21T01:09:37.157Z,8.1
2016-04-21T01:09:47.142Z,8
2016-04-21T01:09:57.173Z,8.1
2016-04-21T01:10:07.177Z,8.1
2016-04-21T01:10:17.177Z,8.1
2016-04-21T01:10:27.177Z,8.1
2016-04-21T01:10:37.177Z,8
2016-04-21T01:10:47.177Z,8
2016-04-21T01:10:57.177Z,8.1
2016-04-21T01:11:07.196Z,8.1
2016-04-21T01:11:17.212Z,8
2016-04-21T01:11:27.196Z,8.1
2016-04-21T01:11:37.212Z,8
2016-04-21T01:11:47.212Z,8.1
2016-04-21T01:11:57.212Z,8.1
2016-04-21T01:12:07.231Z,8
2016-04-21T01:12:17.231Z,8
2016-04-21T01:12:27.231Z,8
2016-04-21T01:12:37.231Z,8
2016-04-21T01:12:47.231Z,7.9
2016-04-21T01:12:57.231Z,8
2016-04-21T01:13:07.265Z,7.9
2016-04-21T01:13:17.250Z,7.9
2016-04-21T01:13:27.250Z,8.1
2016-04-21T01:13:37.250Z,8
2016-04-21T01:13:47.250Z,7.9
2016-04-21T01:13:57.265Z,7.9
2016-04-21T01:14:07.280Z,7.9
2016-04-21T01:14:17.280Z,8
2016-04-21T01:14:27.280Z,7.9
2016-04-21T01:14:37.280Z,7.9
2016-04-21T01:14:47.280Z,7.9
2016-04-21T01:14:57.280Z,7.9
2016-04-21T01:15:07.289Z,7.9
2016-04-21T01:15:17.289Z,8
2016-04-21T01:15:27.289Z,7.9
2016-04-21T01:15:37.305Z,7.9
2016-04-21T01:15:47.305Z,7.9
2016-04-21T01:15:57.305Z,7.9
2016-04-21T01:16:07.313Z,7.9
2016-04-21T01:16:17.313Z,7.9
2016-04-21T01:16:27.313Z,8
2016-04-21T01:16:37.313Z,7.9
2016-04-21T01:16:47.313Z,7.9
2016-04-21T01:16:57.313Z,8
2016-04-21T01:17:07.322Z,7.9
2016-04-21T01:17:17.322Z,8
2016-04-21T01:17:27.322Z,8
2016-04-21T01:17:37.322Z,7.9
2016-04-21T01:17:47.322Z,7.9
2016-04-21T01:17:57.338Z,8
2016-04-21T01:18:07.346Z,7.9
2016-04-21T01:18:17.346Z,7.9
2016-04-21T01:18:27.346Z,7.9
2016-04-21T01:18:37.346Z,7.9
2016-04-21T01:18:47.346Z,7.9
2016-04-21T01:18:57.346Z,7.9
2016-04-21T01:19:07.369Z,7.9
2016-04-21T01:19:17.369Z,7.9
2016-04-21T01:19:27.369Z,7.9
2016-04-21T01:19:37.354Z,7.8
2016-04-21T01:19:47.369Z,7.9
2016-04-21T01:19:57.369Z,7.9
2016-04-21T01:20:07.374Z,7.9
2016-04-21T01:20:17.374Z,7.9
2016-04-21T01:20:27.374Z,7.9
2016-04-21T01:20:37.374Z,7.9
2016-04-21T01:20:47.374Z,7.9
2016-04-21T01:20:57.374Z,7.9
2016-04-21T01:21:07.378Z,7.9
2016-04-21T01:21:17.378Z,7.9
2016-04-21T01:21:27.394Z,7.9
2016-04-21T01:21:37.394Z,7.8
2016-04-21T01:21:47.378Z,7.8
2016-04-21T01:21:57.382Z,7.8
2016-04-21T01:22:07.248Z,7.9
2016-04-21T01:22:17.388Z,7.9
2016-04-21T01:22:27.404Z,7.7
2016-04-21T01:22:37.404Z,7.9
2016-04-21T01:22:47.404Z,7.8
2016-04-21T01:22:57.404Z,7.8
2016-04-21T01:23:07.408Z,7.8
2016-04-21T01:23:17.455Z,7.8
2016-04-21T01:23:27.408Z,7.7
2016-04-21T01:23:37.408Z,7.9
2016-04-21T01:23:47.408Z,7.8
2016-04-21T01:23:57.408Z,7.9
2016-04-21T01:24:07.413Z,7.9
2016-04-21T01:24:17.428Z,7.7
2016-04-21T01:24:27.428Z,7.9
2016-04-21T01:24:37.428Z,7.8
2016-04-21T01:24:47.428Z,7.9
2016-04-21T01:24:57.428Z,7.8
2016-04-21T01:25:07.432Z,7.9
2016-04-21T01:25:17.432Z,7.9
2016-04-21T01:25:27.432Z,7.9
2016-04-21T01:25:37.432Z,7.8
2016-04-21T01:25:47.448Z,7.9
2016-04-21T01:25:57.432Z,7.9
2016-04-21T01:26:07.435Z,7.7
2016-04-21T01:26:17.451Z,7.8
2016-04-21T01:26:27.451Z,7.9
2016-04-21T01:26:37.451Z,7.8
2016-04-21T01:26:47.451Z,7.9
2016-04-21T01:26:57.451Z,7.9
2016-04-21T01:27:07.455Z,7.8
2016-04-21T01:27:17.455Z,7.9
2016-04-21T01:27:27.455Z,7.9
2016-04-21T01:27:37.471Z,7.9
2016-04-21T01:27:47.455Z,7.9
2016-04-21T01:27:57.455Z,7.9
2016-04-21T01:28:07.458Z,7.8
2016-04-21T01:28:17.474Z,7.8
2016-04-21T01:28:27.474Z,7.8
2016-04-21T01:28:37.474Z,7.8
2016-04-21T01:28:47.474Z,7.8
2016-04-21T01:28:57.474Z,7.8
2016-04-21T01:29:07.477Z,7.8
2016-04-21T01:29:17.477Z,7.7
2016-04-21T01:29:27.477Z,7.8
2016-04-21T01:29:37.477Z,7.8
2016-04-21T01:29:47.477Z,7.8
2016-04-21T01:29:57.477Z,7.7
2016-04-21T01:30:07.495Z,7.7
2016-04-21T01:30:17.480Z,7.7
2016-04-21T01:30:27.495Z,7.8
2016-04-21T01:30:37.495Z,7.7
2016-04-21T01:30:47.495Z,7.8
2016-04-21T01:30:57.495Z,7.8
2016-04-21T01:31:07.498Z,7.8
2016-04-21T01:31:17.514Z,7.8
2016-04-21T01:31:27.498Z,7.7
2016-04-21T01:31:37.498Z,7.8
2016-04-21T01:31:47.498Z,7.7
2016-04-21T01:31:57.498Z,7.8
2016-04-21T01:32:07.501Z,7.8
2016-04-21T01:32:17.501Z,7.8
2016-04-21T01:32:27.501Z,7.7
2016-04-21T01:32:37.501Z,7.8
2016-04-21T01:32:47.517Z,7.7
2016-04-21T01:32:57.517Z,7.8
2016-04-21T01:33:07.520Z,7.7
2016-04-21T01:33:17.520Z,7.7
2016-04-21T01:33:27.520Z,7.7
2016-04-21T01:33:37.520Z,7.7
2016-04-21T01:33:47.520Z,7.7
2016-04-21T01:33:57.520Z,7.8
2016-04-21T01:34:07.523Z,7.7
2016-04-21T01:34:17.523Z,7.8
2016-04-21T01:34:27.523Z,7.8
2016-04-21T01:34:37.523Z,7.7
2016-04-21T01:34:47.523Z,7.7
2016-04-21T01:34:57.539Z,7.6
2016-04-21T01:35:07.542Z,7.7
2016-04-21T01:35:17.542Z,7.6
2016-04-21T01:35:27.542Z,7.7
2016-04-21T01:35:37.542Z,7.6
2016-04-21T01:35:47.542Z,7.7
2016-04-21T01:35:57.542Z,7.6
2016-04-21T01:36:07.545Z,7.7
2016-04-21T01:36:17.545Z,7.7
2016-04-21T01:36:27.545Z,7.7
2016-04-21T01:36:37.545Z,7.7
2016-04-21T01:36:47.560Z,7.7
2016-04-21T01:36:57.560Z,7.7
2016-04-21T01:37:07.562Z,7.6
2016-04-21T01:37:17.562Z,7.7
2016-04-21T01:37:27.562Z,7.7
2016-04-21T01:37:37.562Z,7.7
2016-04-21T01:37:47.562Z,7.6
2016-04-21T01:37:57.562Z,7.6
2016-04-21T01:38:07.582Z,7.6
2016-04-21T01:38:17.566Z,7.7
2016-04-21T01:38:27.566Z,7.7
2016-04-21T01:38:37.566Z,7.6
2016-04-21T01:38:47.566Z,7.7
2016-04-21T01:38:57.566Z,7.6
2016-04-21T01:39:07.584Z,7.7
2016-04-21T01:39:17.584Z,7.7
2016-04-21T01:39:27.584Z,7.6
2016-04-21T01:39:37.584Z,7.6
2016-04-21T01:39:47.584Z,7.6
2016-04-21T01:39:57.584Z,7.6
2016-04-21T01:40:07.587Z,7.6
2016-04-21T01:40:17.587Z,7.6
2016-04-21T01:40:27.587Z,7.6
2016-04-21T01:40:37.587Z,7.7
2016-04-21T01:40:47.602Z,7.6
2016-04-21T01:40:57.602Z,7.6
2016-04-21T01:41:07.589Z,7.6
2016-04-21T01:41:17.604Z,7.6
2016-04-21T01:41:27.604Z,7.6
2016-04-21T01:41:37.604Z,7.6
2016-04-21T01:41:47.604Z,7.6
2016-04-21T01:41:57.604Z,7.6
2016-04-21T01:42:07.607Z,7.6
2016-04-21T01:42:17.607Z,7.7
2016-04-21T01:42:27.607Z,7.7
2016-04-21T01:42:37.607Z,7.6
2016-04-21T01:42:47.607Z,7.7
2016-04-21T01:42:57.607Z,7.7
2016-04-21T01:43:07.625Z,7.6
2016-04-21T01:43:17.625Z,7.7
2016-04-21T01:43:27.625Z,7.6
2016-04-21T01:43:37.625Z,7.7
2016-04-21T01:43:47.625Z,7.7
2016-04-21T01:43:57.625Z,7.7
2016-04-21T01:44:07.628Z,7.6
2016-04-21T01:44:17.628Z,7.6
2016-04-21T01:44:27.628Z,7.5
2016-04-21T01:44:37.628Z,7.6
2016-04-21T01:44:47.628Z,7.5
2016-04-21T01:44:57.628Z,7.5
2016-04-21T01:45:07.647Z,7.5
2016-04-21T01:45:17.647Z,7.5
2016-04-21T01:45:27.647Z,7.6
2016-04-21T01:45:37.647Z,7.6
2016-04-21T01:45:47.647Z,7.5
2016-04-21T01:45:57.647Z,7.5
2016-04-21T01:46:07.650Z,7.6
2016-04-21T01:46:17.650Z,7.5
2016-04-21T01:46:27.650Z,7.5
2016-04-21T01:46:37.650Z,7.6
2016-04-21T01:46:47.650Z,7.6
2016-04-21T01:46:57.650Z,7.5
2016-04-21T01:47:07.653Z,7.5
2016-04-21T01:47:17.668Z,7.6
2016-04-21T01:47:27.668Z,7.5
2016-04-21T01:47:37.668Z,7.5
2016-04-21T01:47:47.668Z,7.5
2016-04-21T01:47:57.668Z,7.5
2016-04-21T01:48:07.670Z,7.5
2016-04-21T01:48:17.686Z,7.5
2016-04-21T01:48:28.920Z,7.5
2016-04-21T01:48:37.670Z,7.5
2016-04-21T01:48:47.670Z,7.6
2016-04-21T01:48:57.686Z,7.5
2016-04-21T01:49:07.673Z,7.5
2016-04-21T01:49:17.673Z,7.5
2016-04-21T01:49:27.689Z,7.5
2016-04-21T01:49:37.673Z,7.6
2016-04-21T01:49:47.689Z,7.5
2016-04-21T01:49:57.689Z,7.6
2016-04-21T01:50:07.691Z,7.5
2016-04-21T01:50:17.691Z,7.5
2016-04-21T01:50:27.691Z,7.5
2016-04-21T01:50:37.691Z,7.6
2016-04-21T01:50:47.707Z,7.4
2016-04-21T01:50:57.691Z,7.5
2016-04-21T01:51:07.694Z,7.5
2016-04-21T01:51:17.694Z,7.5
2016-04-21T01:51:27.710Z,7.5
2016-04-21T01:51:37.710Z,7.5
2016-04-21T01:51:47.710Z,7.5
2016-04-21T01:51:57.710Z,7.4
2016-04-21T01:52:07.728Z,7.4
2016-04-21T01:52:17.713Z,7.4
2016-04-21T01:52:27.713Z,7.4
2016-04-21T01:52:37.713Z,7.5
2016-04-21T01:52:47.713Z,7.5
2016-04-21T01:52:57.713Z,7.5
2016-04-21T01:53:07.575Z,7.5
2016-04-21T01:53:18.012Z,7.5
2016-04-21T01:53:27.731Z,7.5
2016-04-21T01:53:37.716Z,7.4
2016-04-21T01:53:47.716Z,7.5
2016-04-21T01:53:57.731Z,7.5
2016-04-21T01:54:07.734Z,7.5
2016-04-21T01:54:17.734Z,7.5
2016-04-21T01:54:27.734Z,7.4
2016-04-21T01:54:37.734Z,7.5
2016-04-21T01:54:47.734Z,7.5
2016-04-21T01:54:57.734Z,7.5
2016-04-21T01:55:07.736Z,7.5
2016-04-21T01:55:17.736Z,7.5
2016-04-21T01:55:27.736Z,7.4
2016-04-21T01:55:37.736Z,7.4
2016-04-21T01:55:47.736Z,7.5
2016-04-21T01:55:57.752Z,7.4
2016-04-21T01:56:07.739Z,7.4
2016-04-21T01:56:17.755Z,7.4
2016-04-21T01:56:27.755Z,7.4
2016-04-21T01:56:37.755Z,7.4
2016-04-21T01:56:47.755Z,7.4
2016-04-21T01:56:57.755Z,7.4
2016-04-21T01:57:07.757Z,7.4
2016-04-21T01:57:17.757Z,7.5
2016-04-21T01:57:27.757Z,7.4
2016-04-21T01:57:37.757Z,7.4
2016-04-21T01:57:47.757Z,7.4
2016-04-21T01:57:57.757Z,7.5
2016-04-21T01:58:07.775Z,7.3
2016-04-21T01:58:17.775Z,7.4
2016-04-21T01:58:27.775Z,7.4
2016-04-21T01:58:37.775Z,7.3
2016-04-21T01:58:47.775Z,7.4
2016-04-21T01:58:57.775Z,7.3
2016-04-21T01:59:07.777Z,7.3
2016-04-21T01:59:17.777Z,7.4
2016-04-21T01:59:27.793Z,7.4
2016-04-21T01:59:37.777Z,7.4
2016-04-21T01:59:47.793Z,7.4
2016-04-21T01:59:57.793Z,7.4
2016-04-21T02:00:07.796Z,7.4
2016-04-21T02:00:17.796Z,7.4
2016-04-21T02:00:27.796Z,7.4
2016-04-21T02:00:37.796Z,7.4
2016-04-21T02:00:47.796Z,7.4
2016-04-21T02:00:57.796Z,7.3
2016-04-21T02:01:07.799Z,7.4
2016-04-21T02:01:17.815Z,7.3
2016-04-21T02:01:27.799Z,7.3
2016-04-21T02:01:37.799Z,7.3
2016-04-21T02:01:47.815Z,7.4
2016-04-21T02:01:57.815Z,7.4
2016-04-21T02:02:07.818Z,7.4
2016-04-21T02:02:17.802Z,7.4
2016-04-21T02:02:27.818Z,7.4
2016-04-21T02:02:37.818Z,7.3
2016-04-21T02:02:47.818Z,7.4
2016-04-21T02:02:57.818Z,7.4
2016-04-21T02:03:07.821Z,7.4
2016-04-21T02:03:17.821Z,7.4
2016-04-21T02:03:27.836Z,7.4
2016-04-21T02:03:37.821Z,7.4
2016-04-21T02:03:47.821Z,7.4
2016-04-21T02:03:57.836Z,7.4
2016-04-21T02:04:07.823Z,7.4
2016-04-21T02:04:17.823Z,7.4
2016-04-21T02:04:27.838Z,7.4
2016-04-21T02:04:37.838Z,7.4
2016-04-21T02:05:34.982Z,7.3
2016-04-21T02:05:44.935Z,7.3
2016-04-21T02:05:54.935Z,7.4
2016-04-21T02:06:04.937Z,7.5
2016-04-21T02:06:14.953Z,7.3
2016-04-21T02:06:24.937Z,7.3
2016-04-21T02:06:34.953Z,7.3
2016-04-21T02:06:44.937Z,7.3
2016-04-21T02:06:54.937Z,7.4
2016-04-21T02:07:04.941Z,7.4
2016-04-21T02:07:14.957Z,7.3
2016-04-21T02:07:24.941Z,7.3
2016-04-21T02:07:34.957Z,7.3
2016-04-21T02:07:44.957Z,7.3
2016-04-21T02:07:54.957Z,7.3
2016-04-21T02:08:04.959Z,7.3
2016-04-21T02:08:14.959Z,7.3
2016-04-21T02:08:24.959Z,7.3
2016-04-21T02:08:34.959Z,7.3
2016-04-21T02:08:44.959Z,7.3
2016-04-21T02:08:54.959Z,7.3
2016-04-21T02:09:04.962Z,7.3
2016-04-21T02:09:14.977Z,7.4
2016-04-21T02:09:24.977Z,7.2
2016-04-21T02:09:34.977Z,7.3
2016-04-21T02:09:44.977Z,7.3
2016-04-21T02:09:54.977Z,7.3
2016-04-21T02:10:04.979Z,7.3
2016-04-21T02:10:14.979Z,7.2
2016-04-21T02:10:24.979Z,7.3
2016-04-21T02:10:34.979Z,7.3
2016-04-21T02:10:44.979Z,7.3
2016-04-21T02:10:54.979Z,7.3
2016-04-21T02:11:04.982Z,7.3
2016-04-21T02:11:14.982Z,7.2
2016-04-21T02:11:24.982Z,7.2
2016-04-21T02:11:34.982Z,7.2
2016-04-21T02:11:44.998Z,7.2
2016-04-21T02:11:54.998Z,7.3
2016-04-21T02:12:05.000Z,7.3
2016-04-21T02:12:15.000Z,7.2
2016-04-21T02:12:25.000Z,7.3
2016-04-21T02:12:35.000Z,7.3
2016-04-21T02:12:45.000Z,7.3
2016-04-21T02:12:55.000Z,7.3
2016-04-21T02:13:05.004Z,7.2
2016-04-21T02:13:15.004Z,7.2
2016-04-21T02:13:24.254Z,7.3
2016-04-21T02:13:35.020Z,7.2
2016-04-21T02:13:45.020Z,7.2
2016-04-21T02:13:55.020Z,7.2
2016-04-21T02:14:05.023Z,7.3
2016-04-21T02:14:15.023Z,7.2
2016-04-21T02:14:25.038Z,7.2
2016-04-21T02:14:35.023Z,7.2
2016-04-21T02:14:45.023Z,7.2
2016-04-21T02:14:55.023Z,7.2
2016-04-21T02:15:05.025Z,7.3
2016-04-21T02:15:15.025Z,7.2
2016-04-21T02:15:25.025Z,7.2
2016-04-21T02:15:35.040Z,7.3
2016-04-21T02:15:45.025Z,7.3
2016-04-21T02:15:55.040Z,7.2
2016-04-21T02:16:05.027Z,7.2
2016-04-21T02:16:15.042Z,7.3
2016-04-21T02:16:25.042Z,7.2
2016-04-21T02:16:35.042Z,7.2
2016-04-21T02:16:45.042Z,7.2
2016-04-21T02:16:55.042Z,7.2
2016-04-21T02:17:05.045Z,7.3
2016-04-21T02:17:15.045Z,7.2
2016-04-21T02:17:25.061Z,7.2
2016-04-21T02:17:35.045Z,7.2
2016-04-21T02:17:45.045Z,7.3
2016-04-21T02:17:55.061Z,7.3
2016-04-21T02:18:05.047Z,7.2
2016-04-21T02:18:15.063Z,7.2
2016-04-21T02:18:25.063Z,7.2
2016-04-21T02:18:35.063Z,7.3
2016-04-21T02:18:45.063Z,7.3
2016-04-21T02:18:55.063Z,7.3